Time;durP1;ratioP1;P1;durP2;ratioP2;P2;SDS_P1;SDS_P2;PMS_P1;PMS_P2;Temp;Humidity;BMP_temperature;BMP_pressure;BME280_temperature;BME280_humidity;BME280_pressure;Samples;Min_cycle;Max_cycle;Signal;HPM_P1;HPM_P2
2022/08/05 00:00:46;;;;;;;;;;;;;;;22.80;37.87;101591.91;7282850;19;153346;-67
2022/08/05 00:03:16;;;;;;;;;;;;;;;22.80;37.93;101597.56;7278416;19;153356;-66
2022/08/05 00:05:43;;;;;;;;;;;;;;;22.89;38.04;101590.06;7279795;19;152800;-66
2022/08/05 00:08:30;;;;;;;;;;;;;;;22.90;37.68;101582.41;7281659;19;152681;-66
2022/08/05 00:11:02;;;;;;;;;;;;;;;22.94;38.03;101580.69;7288793;19;154467;-66
2022/08/05 00:13:33;;;;;;;;;;;;;;;22.78;38.03;101582.06;7281752;19;152957;-67
2022/08/05 00:16:06;;;;;;;;;;;;;;;22.81;37.88;101581.44;7281565;19;154588;-67
2022/08/05 00:18:34;;;;;;;;;;;;;;;22.72;38.40;101584.16;7281191;19;152440;-66
2022/08/05 00:21:03;;;;;;;;;;;;;;;22.75;37.81;101600.44;7281355;19;153467;-66
2022/08/05 00:23:32;;;;;;;;;;;;;;;22.79;38.01;101598.69;7277973;19;154541;-66
2022/08/05 00:26:12;;;;;;;;;;;;;;;22.70;37.61;101603.34;7283471;19;152215;-67
2022/08/05 00:28:41;;;;;;;;;;;;;;;22.69;38.22;101610.09;7280411;19;152904;-66
2022/08/05 00:31:11;;;;;;;;;;;;;;;22.67;38.33;101603.09;7281335;19;152751;-66
2022/08/05 00:33:38;;;;;;;;;;;;;;;22.75;37.67;101610.88;7285282;19;152359;-66
2022/08/05 00:36:25;;;;;;;;;;;;;;;22.81;37.65;101599.19;7279200;19;156433;-67
2022/08/05 00:39:19;;;;;;;;;;;;;;;22.79;37.60;101601.50;7280621;19;152420;-67
2022/08/05 00:41:50;;;;;;;;;;;;;;;22.77;37.73;101606.59;7281081;19;152154;-66
2022/08/05 00:44:22;;;;;;;;;;;;;;;22.79;37.49;101618.41;7279646;19;152909;-66
2022/08/05 00:46:57;;;;;;;;;;;;;;;22.65;38.10;101611.84;7281371;19;152524;-66
2022/08/05 00:49:32;;;;;;;;;;;;;;;22.80;36.96;101622.06;7283938;19;153760;-66
2022/08/05 00:52:17;;;;;;;;;;;;;;;22.80;37.14;101630.53;7287391;19;153439;-66
2022/08/05 00:54:54;;;;;;;;;;;;;;;22.77;37.38;101623.50;7287192;19;151805;-66
2022/08/05 00:57:21;;;;;;;;;;;;;;;22.71;37.40;101633.19;7292213;19;152882;-66
2022/08/05 00:59:51;;;;;;;;;;;;;;;22.69;37.30;101641.09;7285283;19;151939;-67
2022/08/05 01:02:18;;;;;;;;;;;;;;;22.61;37.29;101631.34;7286621;19;152840;-67
2022/08/05 01:04:49;;;;;;;;;;;;;;;22.63;37.57;101634.69;7282307;19;153427;-66
2022/08/05 01:07:16;;;;;;;;;;;;;;;22.58;37.60;101636.72;7287879;19;152617;-66
2022/08/05 01:09:43;;;;;;;;;;;;;;;22.46;37.56;101631.59;7287961;19;153513;-66
2022/08/05 01:12:21;;;;;;;;;;;;;;;22.48;37.62;101628.47;7286801;19;156616;-66
2022/08/05 01:15:17;;;;;;;;;;;;;;;22.46;38.02;101634.41;7285865;19;152126;-66
2022/08/05 01:18:08;;;;;;;;;;;;;;;22.49;37.89;101627.31;7285943;19;153377;-66
2022/08/05 01:20:49;;;;;;;;;;;;;;;22.51;38.28;101634.31;7291097;19;151834;-66
2022/08/05 01:23:43;;;;;;;;;;;;;;;22.59;38.13;101632.78;7285294;19;153154;-66
2022/08/05 01:26:42;;;;;;;;;;;;;;;22.52;38.25;101630.38;7285729;19;152410;-66
2022/08/05 01:29:20;;;;;;;;;;;;;;;22.51;38.12;101628.69;7287227;19;152631;-66
2022/08/05 01:31:53;;;;;;;;;;;;;;;22.47;38.34;101621.16;7285877;19;152401;-66
2022/08/05 01:34:29;;;;;;;;;;;;;;;22.42;38.70;101627.69;7282689;19;153212;-66
2022/08/05 01:37:20;;;;;;;;;;;;;;;22.41;38.30;101631.66;7284256;19;152527;-66
2022/08/05 01:39:53;;;;;;;;;;;;;;;22.41;38.73;101633.63;7284204;19;152141;-66
2022/08/05 01:42:25;;;;;;;;;;;;;;;22.46;38.46;101630.75;7293296;19;153539;-66
2022/08/05 01:44:54;;;;;;;;;;;;;;;22.45;38.53;101638.34;7284153;19;151936;-66
2022/08/05 01:47:22;;;;;;;;;;;;;;;22.50;38.13;101643.91;7285679;19;152608;-66
2022/08/05 01:50:07;;;;;;;;;;;;;;;22.43;38.44;101642.63;7280865;19;152629;-66
2022/08/05 01:52:41;;;;;;;;;;;;;;;22.35;38.35;101641.31;7286315;19;152195;-66
2022/08/05 01:55:10;;;;;;;;;;;;;;;22.39;38.47;101636.78;7284357;19;153847;-66
2022/08/05 01:57:40;;;;;;;;;;;;;;;22.36;38.77;101643.00;7285647;19;152058;-66
2022/08/05 02:00:34;;;;;;;;;;;;;;;22.42;38.45;101658.69;7280613;19;152112;-66
2022/08/05 02:03:18;;;;;;;;;;;;;;;22.35;38.95;101660.22;7281620;19;154567;-66
2022/08/05 02:06:01;;;;;;;;;;;;;;;22.22;38.98;101670.22;7291046;19;152538;-66
2022/08/05 02:08:55;;;;;;;;;;;;;;;22.29;38.92;101670.69;7283079;19;156094;-66
2022/08/05 02:11:39;;;;;;;;;;;;;;;22.24;39.07;101661.47;7286517;19;151847;-66
2022/08/05 02:14:26;;;;;;;;;;;;;;;22.33;38.71;101668.09;7284429;19;154530;-66
2022/08/05 02:17:06;;;;;;;;;;;;;;;22.25;38.83;101661.19;7284935;19;152790;-66
2022/08/05 02:20:15;;;;;;;;;;;;;;;22.24;39.03;101661.47;7282275;19;152651;-66
2022/08/05 02:23:03;;;;;;;;;;;;;;;22.25;38.88;101657.53;7284439;19;152753;-66
2022/08/05 02:25:38;;;;;;;;;;;;;;;22.11;38.58;101663.06;7283128;19;153894;-65
2022/08/05 02:28:18;;;;;;;;;;;;;;;22.17;39.05;101659.03;7283600;19;152188;-66
2022/08/05 02:31:01;;;;;;;;;;;;;;;22.26;38.76;101659.22;7293367;19;154420;-66
2022/08/05 02:33:31;;;;;;;;;;;;;;;22.10;38.91;101662.22;7285205;19;152389;-66
2022/08/05 02:36:07;;;;;;;;;;;;;;;22.08;38.60;101658.03;7284828;19;153157;-66
2022/08/05 02:38:36;;;;;;;;;;;;;;;22.15;38.57;101662.16;7283671;19;153571;-66
2022/08/05 02:41:08;;;;;;;;;;;;;;;22.13;38.74;101672.03;7285005;19;151979;-66
2022/08/05 02:43:49;;;;;;;;;;;;;;;22.13;38.72;101664.41;7281603;19;152533;-66
2022/08/05 02:46:32;;;;;;;;;;;;;;;22.13;38.66;101660.78;7284085;19;153457;-66
2022/08/05 02:49:00;;;;;;;;;;;;;;;22.09;38.56;101663.34;7281227;19;152413;-66
2022/08/05 02:51:27;;;;;;;;;;;;;;;22.12;38.48;101671.19;7286372;19;153408;-66
2022/08/05 02:54:14;;;;;;;;;;;;;;;22.18;38.41;101675.63;7289844;19;155745;-66
2022/08/05 02:57:01;;;;;;;;;;;;;;;22.17;38.33;101687.16;7281960;19;154926;-66
2022/08/05 02:59:31;;;;;;;;;;;;;;;22.02;38.23;101682.59;7282849;19;152989;-66
2022/08/05 03:02:16;;;;;;;;;;;;;;;22.05;38.46;101675.53;7281929;19;152090;-66
2022/08/05 03:04:44;;;;;;;;;;;;;;;21.94;38.56;101679.63;7281008;19;153614;-66
2022/08/05 03:07:19;;;;;;;;;;;;;;;21.96;38.86;101677.31;7283863;19;153996;-66
2022/08/05 03:10:07;;;;;;;;;;;;;;;22.02;38.78;101681.75;7281239;19;152566;-66
2022/08/05 03:12:35;;;;;;;;;;;;;;;21.95;38.60;101678.44;7285029;19;153048;-66
2022/08/05 03:15:04;;;;;;;;;;;;;;;21.90;39.04;101672.84;7281976;19;152903;-66
2022/08/05 03:17:32;;;;;;;;;;;;;;;21.88;38.95;101675.16;7291564;19;153568;-66
2022/08/05 03:20:07;;;;;;;;;;;;;;;21.92;38.44;101684.66;7276384;19;154306;-66
2022/08/05 03:22:35;;;;;;;;;;;;;;;21.92;39.30;101684.66;7281993;19;154441;-66
2022/08/05 03:25:02;;;;;;;;;;;;;;;21.89;38.77;101691.75;7282675;19;153176;-67
2022/08/05 03:27:49;;;;;;;;;;;;;;;21.82;38.97;101687.59;7280712;19;155980;-66
2022/08/05 03:30:27;;;;;;;;;;;;;;;21.99;38.95;101685.16;7282740;19;152749;-66
2022/08/05 03:33:00;;;;;;;;;;;;;;;21.83;39.11;101687.28;7283936;19;152204;-66
2022/08/05 03:35:28;;;;;;;;;;;;;;;21.94;38.77;101696.50;7278636;19;154268;-66
2022/08/05 03:37:59;;;;;;;;;;;;;;;21.79;38.78;101700.28;7291510;19;152276;-66
2022/08/05 03:40:26;;;;;;;;;;;;;;;21.87;38.68;101693.16;7281558;19;154511;-66
2022/08/05 03:42:58;;;;;;;;;;;;;;;21.91;38.79;101697.88;7282762;19;152314;-66
2022/08/05 03:45:45;;;;;;;;;;;;;;;21.88;38.67;101709.75;7280396;19;156493;-66
2022/08/05 03:48:24;;;;;;;;;;;;;;;21.87;38.84;101707.22;7282155;19;153400;-66
2022/08/05 03:50:52;;;;;;;;;;;;;;;21.84;38.68;101705.03;7279369;19;153269;-66
2022/08/05 03:53:28;;;;;;;;;;;;;;;21.83;38.89;101711.78;7283483;19;152495;-66
2022/08/05 03:56:20;;;;;;;;;;;;;;;21.86;39.01;101719.59;7282959;19;156218;-66
2022/08/05 03:59:03;;;;;;;;;;;;;;;21.81;39.00;101712.06;7283015;19;152201;-66
2022/08/05 04:01:32;;;;;;;;;;;;;;;21.77;39.14;101722.25;7288574;19;157135;-66
2022/08/05 04:04:00;;;;;;;;;;;;;;;21.74;38.75;101723.69;7277719;19;151939;-66
2022/08/05 04:06:36;;;;;;;;;;;;;;;21.76;39.21;101719.75;7280998;19;153764;-66
2022/08/05 04:09:17;;;;;;;;;;;;;;;21.77;38.83;101727.88;7279636;19;155349;-66
2022/08/05 04:11:51;;;;;;;;;;;;;;;21.71;39.29;101740.34;7283114;19;153053;-66
2022/08/05 04:14:18;;;;;;;;;;;;;;;21.62;39.01;101734.47;7280875;19;152287;-66
2022/08/05 04:16:57;;;;;;;;;;;;;;;21.64;39.13;101746.28;7281347;19;154050;-66
2022/08/05 04:19:24;;;;;;;;;;;;;;;21.68;38.94;101749.34;7278148;19;152922;-66
2022/08/05 04:21:51;;;;;;;;;;;;;;;21.68;39.04;101746.53;7281967;19;152954;-66
2022/08/05 04:24:40;;;;;;;;;;;;;;;21.59;38.46;101740.72;7292190;19;152699;-66
2022/08/05 04:27:10;;;;;;;;;;;;;;;21.50;38.74;101739.69;7289315;19;153843;-66
2022/08/05 04:29:37;;;;;;;;;;;;;;;21.48;39.01;101744.78;7286402;19;153310;-66
2022/08/05 04:32:05;;;;;;;;;;;;;;;21.60;38.57;101738.75;7285867;19;154195;-66
2022/08/05 04:34:32;;;;;;;;;;;;;;;21.58;38.82;101746.63;7285853;19;152597;-66
2022/08/05 04:37:08;;;;;;;;;;;;;;;21.61;38.77;101741.28;7287843;19;153945;-66
2022/08/05 04:39:34;;;;;;;;;;;;;;;21.60;38.52;101747.19;7288258;19;152103;-66
2022/08/05 04:42:01;;;;;;;;;;;;;;;21.58;38.55;101755.91;7288311;19;152831;-66
2022/08/05 04:44:29;;;;;;;;;;;;;;;21.62;38.59;101758.97;7282600;19;153423;-66
2022/08/05 04:46:57;;;;;;;;;;;;;;;21.63;38.27;101752.19;7296316;19;151935;-66
2022/08/05 04:49:24;;;;;;;;;;;;;;;21.52;38.46;101761.88;7283751;19;152862;-66
2022/08/05 04:52:11;;;;;;;;;;;;;;;21.53;38.56;101753.13;7287806;19;152537;-66
2022/08/05 04:54:38;;;;;;;;;;;;;;;21.50;38.14;101764.97;7286997;19;153374;-66
2022/08/05 04:57:04;;;;;;;;;;;;;;;21.50;38.33;101767.78;7286072;19;154306;-66
2022/08/05 04:59:32;;;;;;;;;;;;;;;21.53;38.16;101777.63;7287215;19;152146;-66
2022/08/05 05:02:06;;;;;;;;;;;;;;;21.44;38.46;101785.84;7286927;19;152332;-66
2022/08/05 05:04:52;;;;;;;;;;;;;;;21.43;38.10;101778.56;7279364;19;156242;-66
2022/08/05 05:07:28;;;;;;;;;;;;;;;21.45;38.22;101792.28;7288666;19;152898;-66
2022/08/05 05:10:04;;;;;;;;;;;;;;;21.36;38.09;101786.47;7290403;19;152007;-65
2022/08/05 05:12:31;;;;;;;;;;;;;;;21.29;38.44;101791.59;7287883;19;152506;-66
2022/08/05 05:14:58;;;;;;;;;;;;;;;21.26;38.62;101789.34;7285448;19;152544;-65
2022/08/05 05:17:35;;;;;;;;;;;;;;;21.31;38.61;101789.31;7285668;19;155499;-66
2022/08/05 05:20:22;;;;;;;;;;;;;;;21.28;38.85;101790.75;7283877;19;152424;-66
2022/08/05 05:22:53;;;;;;;;;;;;;;;21.28;39.06;101798.34;7287679;19;152736;-65
2022/08/05 05:25:20;;;;;;;;;;;;;;;21.24;39.07;101794.44;7282392;19;152655;-66
2022/08/05 05:28:06;;;;;;;;;;;;;;;21.23;39.30;101793.59;7284011;19;152475;-66
2022/08/05 05:30:32;;;;;;;;;;;;;;;21.36;38.75;101800.53;7286961;19;152655;-65
2022/08/05 05:33:00;;;;;;;;;;;;;;;21.32;39.05;101802.25;7293980;19;153979;-66
2022/08/05 05:35:39;;;;;;;;;;;;;;;21.36;39.17;101808.97;7283261;19;153763;-66
2022/08/05 05:38:08;;;;;;;;;;;;;;;21.33;38.95;101812.38;7285461;19;154548;-66
2022/08/05 05:40:39;;;;;;;;;;;;;;;21.24;39.39;101811.31;7286442;19;153372;-66
2022/08/05 05:43:17;;;;;;;;;;;;;;;21.44;38.70;101818.75;7286693;19;152408;-66
2022/08/05 05:46:03;;;;;;;;;;;;;;;21.36;38.89;101820.22;7285570;19;156424;-66
2022/08/05 05:48:44;;;;;;;;;;;;;;;21.33;39.27;101819.97;7283007;19;153224;-66
2022/08/05 05:51:17;;;;;;;;;;;;;;;21.30;39.59;101818.59;7287935;19;153474;-66
2022/08/05 05:53:43;;;;;;;;;;;;;;;21.18;39.68;101824.56;7291346;19;153059;-67
2022/08/05 05:56:23;;;;;;;;;;;;;;;21.18;39.87;101821.75;7287423;19;152714;-66
2022/08/05 05:58:59;;;;;;;;;;;;;;;21.26;39.88;101829.56;7282892;19;153075;-66
2022/08/05 06:01:31;;;;;;;;;;;;;;;21.32;39.93;101835.13;7285841;19;152316;-66
2022/08/05 06:04:08;;;;;;;;;;;;;;;21.17;40.35;101836.91;7280907;19;153499;-66
2022/08/05 06:06:38;;;;;;;;;;;;;;;21.27;39.79;101845.28;7284403;19;153892;-66
2022/08/05 06:09:07;;;;;;;;;;;;;;;21.17;40.09;101850.97;7284572;19;151984;-66
2022/08/05 06:11:44;;;;;;;;;;;;;;;21.22;39.98;101858.53;7285647;19;153690;-66
2022/08/05 06:14:25;;;;;;;;;;;;;;;21.15;40.22;101856.06;7283601;19;152870;-66
2022/08/05 06:16:54;;;;;;;;;;;;;;;21.19;40.00;101850.69;7294027;19;151729;-66
2022/08/05 06:19:23;;;;;;;;;;;;;;;21.27;39.90;101850.91;7280432;19;153418;-66
2022/08/05 06:22:01;;;;;;;;;;;;;;;21.22;39.96;101847.28;7285345;19;152372;-66
2022/08/05 06:24:28;;;;;;;;;;;;;;;21.21;39.89;101854.06;7281719;19;153693;-66
2022/08/05 06:26:56;;;;;;;;;;;;;;;21.24;40.20;101857.13;7282031;19;153370;-66
2022/08/05 06:29:23;;;;;;;;;;;;;;;21.22;39.69;101870.63;7282088;19;152121;-66
2022/08/05 06:32:10;;;;;;;;;;;;;;;21.17;40.31;101865.03;7283966;19;155656;-66
2022/08/05 06:34:52;;;;;;;;;;;;;;;21.09;40.33;101870.38;7277800;19;152859;-66
2022/08/05 06:37:22;;;;;;;;;;;;;;;21.11;40.02;101870.94;7283935;19;152492;-66
2022/08/05 06:40:09;;;;;;;;;;;;;;;21.19;40.13;101876.00;7289568;19;154971;-66
2022/08/05 06:42:37;;;;;;;;;;;;;;;21.16;39.74;101869.00;7284117;19;152943;-66
2022/08/05 06:45:06;;;;;;;;;;;;;;;21.17;39.66;101881.03;7277405;19;152846;-66
2022/08/05 06:47:34;;;;;;;;;;;;;;;21.17;39.68;101884.69;7283827;19;153882;-65
2022/08/05 06:50:21;;;;;;;;;;;;;;;21.11;39.55;101891.47;7280971;19;152596;-66
2022/08/05 06:52:48;;;;;;;;;;;;;;;21.10;39.39;101889.78;7284548;19;152768;-66
2022/08/05 06:55:35;;;;;;;;;;;;;;;21.15;39.54;101895.41;7280624;19;157067;-66
2022/08/05 06:58:02;;;;;;;;;;;;;;;21.09;39.31;101898.50;7284965;19;152138;-66
2022/08/05 07:00:49;;;;;;;;;;;;;;;21.19;39.79;101895.66;7283594;19;154315;-66
2022/08/05 07:03:16;;;;;;;;;;;;;;;21.24;39.38;101898.44;7287326;19;153551;-66
2022/08/05 07:05:43;;;;;;;;;;;;;;;21.11;39.47;101893.44;7278332;19;153613;-66
2022/08/05 07:08:11;;;;;;;;;;;;;;;21.12;39.63;101893.13;7282155;19;154086;-66
2022/08/05 07:10:39;;;;;;;;;;;;;;;21.04;39.86;101899.34;7281304;19;151991;-66
2022/08/05 07:19:28;;;;;;;;;;;;;;;21.18;40.51;101919.28;7281094;19;152319;-66
2022/08/05 07:22:15;;;;;;;;;;;;;;;21.09;40.04;101920.97;7282772;19;152574;-66
2022/08/05 07:24:42;;;;;;;;;;;;;;;21.15;40.14;101920.69;7280234;19;152583;-66
2022/08/05 07:27:18;;;;;;;;;;;;;;;21.13;40.35;101920.13;7291145;19;152395;-66
2022/08/05 07:29:47;;;;;;;;;;;;;;;21.11;40.32;101918.72;7282130;19;152367;-66
2022/08/05 07:32:34;;;;;;;;;;;;;;;21.14;39.71;101919.00;7283621;19;152875;-65
2022/08/05 07:35:06;;;;;;;;;;;;;;;21.07;40.19;101923.25;7279881;19;152211;-66
2022/08/05 07:37:52;;;;;;;;;;;;;;;21.14;39.61;101932.22;7280924;19;157264;-67
2022/08/05 07:40:20;;;;;;;;;;;;;;;21.09;39.75;101923.78;7280491;19;152193;-66
2022/08/05 07:42:58;;;;;;;;;;;;;;;21.12;39.67;101932.47;7281846;19;152062;-66
2022/08/05 07:45:31;;;;;;;;;;;;;;;21.16;39.50;101933.63;7280027;19;153654;-65
2022/08/05 07:48:17;;;;;;;;;;;;;;;21.16;39.77;101939.25;7283452;19;154282;-66
2022/08/05 07:51:04;;;;;;;;;;;;;;;21.03;39.85;101942.63;7289563;19;152384;-66
2022/08/05 07:53:51;;;;;;;;;;;;;;;21.05;39.92;101942.34;7278810;19;153875;-66
2022/08/05 07:56:19;;;;;;;;;;;;;;;21.08;39.91;101945.41;7283349;19;153472;-65
2022/08/05 07:59:06;;;;;;;;;;;;;;;21.20;39.55;101942.31;7287635;19;157368;-66
2022/08/05 08:01:34;;;;;;;;;;;;;;;21.11;40.03;101942.06;7289447;19;156459;-66
2022/08/05 08:04:17;;;;;;;;;;;;;;;21.15;39.70;101947.97;7285784;19;154611;-66
2022/08/05 08:07:03;;;;;;;;;;;;;;;21.16;39.54;101944.88;7289848;19;153417;-66
2022/08/05 08:09:32;;;;;;;;;;;;;;;21.16;39.25;101949.66;7288616;19;152406;-65
2022/08/05 08:11:59;;;;;;;;;;;;;;;21.13;39.67;101944.59;7296394;19;153309;-66
2022/08/05 08:14:40;;;;;;;;;;;;;;;21.20;39.34;101956.38;7285441;19;152660;-65
2022/08/05 08:17:12;;;;;;;;;;;;;;;21.16;39.71;101949.66;7290050;19;152608;-65
2022/08/05 08:19:42;;;;;;;;;;;;;;;21.22;39.34;101954.09;7284424;19;152665;-66
2022/08/05 08:22:28;;;;;;;;;;;;;;;21.13;39.91;101959.47;7289710;19;152355;-65
2022/08/05 08:24:57;;;;;;;;;;;;;;;21.19;40.13;101954.69;7287216;19;153369;-66
2022/08/05 08:27:29;;;;;;;;;;;;;;;21.10;39.81;101948.78;7286402;19;154080;-65
2022/08/05 08:30:05;;;;;;;;;;;;;;;21.13;39.69;101962.28;7287411;19;152160;-66
2022/08/05 08:32:52;;;;;;;;;;;;;;;21.20;39.79;101956.38;7288311;19;155878;-66
2022/08/05 08:35:19;;;;;;;;;;;;;;;21.19;39.18;101968.75;7289720;19;153312;-66
2022/08/05 08:37:52;;;;;;;;;;;;;;;21.17;39.49;101970.97;7289543;19;152931;-66
2022/08/05 08:40:21;;;;;;;;;;;;;;;21.09;39.45;101974.34;7286054;19;153393;-67
2022/08/05 08:42:50;;;;;;;;;;;;;;;21.10;39.48;101974.09;7289580;19;151836;-66
2022/08/05 08:45:20;;;;;;;;;;;;;;;21.09;39.34;101963.13;7287623;19;153511;-66
2022/08/05 08:47:54;;;;;;;;;;;;;;;21.05;39.34;101967.63;7284965;19;154056;-66
2022/08/05 08:50:39;;;;;;;;;;;;;;;21.07;39.42;101960.63;7284903;19;152979;-66
2022/08/05 08:53:29;;;;;;;;;;;;;;;21.12;39.20;101973.81;7288900;19;155652;-66
2022/08/05 08:55:57;;;;;;;;;;;;;;;21.13;39.69;101969.88;7285312;19;152868;-66
2022/08/05 08:58:30;;;;;;;;;;;;;;;21.17;40.00;101966.19;7294602;19;151901;-66
2022/08/05 09:01:13;;;;;;;;;;;;;;;21.15;39.82;101967.63;7287449;19;153119;-66
2022/08/05 09:03:47;;;;;;;;;;;;;;;21.22;39.54;101969.00;7283399;19;153109;-66
2022/08/05 09:06:21;;;;;;;;;;;;;;;21.11;39.53;101975.78;7286189;19;153395;-66
2022/08/05 09:08:54;;;;;;;;;;;;;;;21.23;38.77;101973.50;7284227;19;153715;-66
2022/08/05 09:11:21;;;;;;;;;;;;;;;21.19;38.13;101971.53;7287637;19;152167;-66
2022/08/05 09:14:09;;;;;;;;;;;;;;;21.29;38.40;101965.88;7287212;19;155259;-66
2022/08/05 09:16:57;;;;;;;;;;;;;;;21.26;38.75;101972.91;7285366;19;155368;-66
2022/08/05 09:19:23;;;;;;;;;;;;;;;21.21;38.71;101969.31;7282029;19;152342;-66
2022/08/05 09:22:01;;;;;;;;;;;;;;;21.30;38.65;101964.75;7294575;19;152630;-66
2022/08/05 09:24:58;;;;;;;;;;;;;;;21.34;38.16;101965.00;7284407;19;152097;-66
2022/08/05 09:27:36;;;;;;;;;;;;;;;21.36;38.06;101973.97;7287420;19;153363;-66
2022/08/05 09:30:23;;;;;;;;;;;;;;;21.36;38.04;101972.03;7282838;19;156540;-65
2022/08/05 09:32:49;;;;;;;;;;;;;;;21.36;37.70;101974.81;7287506;19;152921;-66
2022/08/05 09:35:18;;;;;;;;;;;;;;;21.44;37.56;101976.22;7283250;19;153909;-66
2022/08/05 09:37:54;;;;;;;;;;;;;;;21.47;37.79;101982.09;7286146;19;156317;-66
2022/08/05 09:40:42;;;;;;;;;;;;;;;21.51;37.77;101976.72;7284692;19;153220;-65
2022/08/05 09:43:25;;;;;;;;;;;;;;;21.50;37.42;101969.41;7285318;19;152047;-66
2022/08/05 09:45:51;;;;;;;;;;;;;;;21.48;38.08;101974.50;7289974;19;154991;-66
2022/08/05 09:48:34;;;;;;;;;;;;;;;21.51;38.00;101974.75;7284065;19;153631;-65
2022/08/05 09:51:03;;;;;;;;;;;;;;;21.55;37.72;101977.81;7285637;19;154718;-66
2022/08/05 09:53:47;;;;;;;;;;;;;;;21.51;37.00;101974.75;7281441;19;152197;-66
2022/08/05 09:56:23;;;;;;;;;;;;;;;21.52;36.92;101970.81;7287499;19;153220;-65
2022/08/05 09:59:03;;;;;;;;;;;;;;;21.56;37.02;101977.53;7283910;19;152314;-66
2022/08/05 10:01:32;;;;;;;;;;;;;;;21.60;37.12;101974.97;7283755;19;151791;-66
2022/08/05 10:04:06;;;;;;;;;;;;;;;21.66;37.17;101971.84;7282401;19;155024;-66
2022/08/05 10:06:36;;;;;;;;;;;;;;;21.71;37.22;101974.59;7283442;19;154818;-66
2022/08/05 10:09:21;;;;;;;;;;;;;;;21.76;36.91;101976.53;7291843;19;154543;-66
2022/08/05 10:12:05;;;;;;;;;;;;;;;21.77;37.27;101983.00;7284549;19;152645;-66
2022/08/05 10:14:52;;;;;;;;;;;;;;;21.81;36.82;101981.28;7283182;19;153341;-66
2022/08/05 10:17:19;;;;;;;;;;;;;;;21.86;36.12;101978.44;7284501;19;153140;-66
2022/08/05 10:20:06;;;;;;;;;;;;;;;21.92;37.09;101972.50;7279538;19;154516;-66
2022/08/05 10:22:37;;;;;;;;;;;;;;;21.97;35.26;101975.31;7285387;19;153359;-66
2022/08/05 10:25:08;;;;;;;;;;;;;;;22.03;36.00;101970.50;7281959;19;153692;-67
2022/08/05 10:27:39;;;;;;;;;;;;;;;22.05;36.52;101971.88;7284510;19;152570;-67
2022/08/05 10:30:26;;;;;;;;;;;;;;;22.09;37.24;101978.59;7291926;19;152516;-67
2022/08/05 10:33:13;;;;;;;;;;;;;;;22.12;37.24;101980.00;7281821;19;156574;-68
2022/08/05 10:35:40;;;;;;;;;;;;;;;22.10;37.37;101977.47;7281054;19;154802;-67
2022/08/05 10:38:11;;;;;;;;;;;;;;;22.13;37.74;101990.09;7285773;19;154117;-68
2022/08/05 10:40:53;;;;;;;;;;;;;;;22.17;37.85;101986.41;7281502;19;154099;-67
2022/08/05 10:43:23;;;;;;;;;;;;;;;22.23;37.65;101972.28;7282989;19;152197;-67
2022/08/05 10:46:07;;;;;;;;;;;;;;;22.25;37.71;101979.31;7283066;19;153931;-68
2022/08/05 10:48:35;;;;;;;;;;;;;;;22.29;38.01;101980.41;7280899;19;153604;-68
2022/08/05 10:51:23;;;;;;;;;;;;;;;22.34;37.96;101979.50;7286857;19;152376;-68
2022/08/05 10:53:54;;;;;;;;;;;;;;;22.36;37.62;101988.50;7289396;19;153159;-68
2022/08/05 10:56:25;;;;;;;;;;;;;;;22.39;38.07;101993.56;7286093;19;151976;-68
2022/08/05 10:58:54;;;;;;;;;;;;;;;22.44;37.83;101991.50;7283064;19;153482;-67
2022/08/05 11:01:34;;;;;;;;;;;;;;;22.47;37.81;101993.75;7281044;19;153103;-68
2022/08/05 11:04:21;;;;;;;;;;;;;;;22.49;37.74;101991.44;7281156;19;152506;-67
2022/08/05 11:06:59;;;;;;;;;;;;;;;22.53;37.34;102000.19;7282137;19;152523;-68
2022/08/05 11:09:38;;;;;;;;;;;;;;;22.53;37.52;101992.53;7277193;19;154882;-67
2022/08/05 11:12:30;;;;;;;;;;;;;;;22.57;37.35;101998.44;7282921;19;154273;-67
2022/08/05 11:15:04;;;;;;;;;;;;;;;22.59;37.45;102008.25;7283344;19;153943;-67
2022/08/05 11:17:47;;;;;;;;;;;;;;;22.62;37.31;102013.28;7288434;19;153306;-68
2022/08/05 11:20:32;;;;;;;;;;;;;;;22.66;37.34;102004.28;7279962;19;153184;-67
2022/08/05 11:23:20;;;;;;;;;;;;;;;22.69;37.55;102010.13;7280782;19;154621;-67
2022/08/05 11:26:10;;;;;;;;;;;;;;;22.71;37.11;102007.06;7279482;19;152596;-67
2022/08/05 11:28:42;;;;;;;;;;;;;;;22.73;37.57;102019.72;7280831;19;152746;-67
2022/08/05 11:31:15;;;;;;;;;;;;;;;22.76;37.45;102010.66;7279792;19;154067;-68
2022/08/05 11:34:04;;;;;;;;;;;;;;;22.79;36.99;102012.91;7275582;19;152525;-67
2022/08/05 11:36:49;;;;;;;;;;;;;;;22.81;37.29;102012.56;7281729;19;152317;-68
2022/08/05 11:39:36;;;;;;;;;;;;;;;22.85;36.89;102024.97;7279410;19;153142;-67
2022/08/05 11:42:04;;;;;;;;;;;;;;;;;;7290259;19;152190;-67
2022/08/05 11:44:35;;;;;;;;;;;;;;;22.89;37.03;102015.59;7278540;19;181380;-67
2022/08/05 11:47:20;;;;;;;;;;;;;;;22.89;36.33;102011.94;7276802;19;153304;-68
2022/08/05 11:50:07;;;;;;;;;;;;;;;22.90;36.76;102014.44;7277514;19;156507;-67
2022/08/05 11:52:34;;;;;;;;;;;;;;;22.91;36.89;102013.31;7279935;19;153383;-68
2022/08/05 11:55:03;;;;;;;;;;;;;;;22.94;36.96;102023.16;7279879;19;152232;-67
2022/08/05 11:57:35;;;;;;;;;;;;;;;22.97;36.37;102008.47;7283318;19;155016;-67
2022/08/05 12:00:29;;;;;;;;;;;;;;;22.98;36.61;102007.34;7279506;19;155858;-68
2022/08/05 12:02:56;;;;;;;;;;;;;;;22.98;36.67;102007.34;7280888;19;153112;-68
2022/08/05 12:05:26;;;;;;;;;;;;;;;23.00;37.04;102016.31;7284228;19;153274;-68
2022/08/05 12:08:05;;;;;;;;;;;;;;;22.99;36.68;102028.72;7281194;19;152469;-67
2022/08/05 12:10:38;;;;;;;;;;;;;;;23.02;36.76;102020.53;7279928;19;152733;-68
2022/08/05 12:13:12;;;;;;;;;;;;;;;23.03;36.71;102013.72;7280571;19;154141;-67
2022/08/05 12:15:44;;;;;;;;;;;;;;;23.06;36.42;102015.13;7281532;19;154414;-67
2022/08/05 12:18:18;;;;;;;;;;;;;;;23.07;36.66;102022.44;7281715;19;153146;-67
2022/08/05 12:20:49;;;;;;;;;;;;;;;23.08;36.77;102014.84;7277263;19;154428;-67
2022/08/05 12:23:16;;;;;;;;;;;;;;;23.09;36.87;102028.63;7282084;19;152306;-68
2022/08/05 12:25:52;;;;;;;;;;;;;;;23.11;36.16;102032.00;7279407;19;152326;-67
2022/08/05 12:28:31;;;;;;;;;;;;;;;23.12;36.26;102032.81;7288127;19;152523;-67
2022/08/05 12:30:58;;;;;;;;;;;;;;;23.14;36.48;102036.16;7280776;19;153820;-68
2022/08/05 12:33:28;;;;;;;;;;;;;;;23.12;35.85;102033.66;7279839;19;153599;-67
2022/08/05 12:36:03;;;;;;;;;;;;;;;23.12;35.82;102021.56;7279915;19;152766;-68
2022/08/05 12:38:35;;;;;;;;;;;;;;;23.11;36.33;102023.53;7278812;19;152864;-67
2022/08/05 12:41:10;;;;;;;;;;;;;;;23.12;35.98;102033.66;7278829;19;154826;-67
2022/08/05 12:43:55;;;;;;;;;;;;;;;23.12;35.86;102030.84;7280462;19;153587;-67
2022/08/05 12:46:23;;;;;;;;;;;;;;;23.13;35.92;102035.31;7286325;19;152651;-67
2022/08/05 12:48:57;;;;;;;;;;;;;;;23.13;36.73;102045.75;7290715;19;153191;-67
2022/08/05 12:51:26;;;;;;;;;;;;;;;23.14;36.00;102044.63;7287806;19;152329;-67
2022/08/05 12:54:42;;;;;;;;;;;;;;;23.15;36.56;102041.53;7283787;19;157719;-67
2022/08/05 12:57:10;;;;;;;;;;;;;;;23.16;36.38;102048.00;7285601;19;152069;-68
2022/08/05 12:59:48;;;;;;;;;;;;;;;23.17;36.16;102055.31;7285622;19;151725;-68
2022/08/05 13:02:35;;;;;;;;;;;;;;;23.17;36.58;102058.16;7283678;19;155914;-67
2022/08/05 13:05:05;;;;;;;;;;;;;;;23.19;36.38;102061.50;7281676;19;152237;-67
2022/08/05 13:07:32;;;;;;;;;;;;;;;23.18;36.05;102049.38;7282286;19;153580;-67
2022/08/05 13:10:19;;;;;;;;;;;;;;;23.19;36.18;102042.59;7282092;19;156222;-68
2022/08/05 13:12:46;;;;;;;;;;;;;;;23.18;36.25;102055.00;7294812;19;152063;-67
2022/08/05 13:15:27;;;;;;;;;;;;;;;23.20;36.06;102064.03;7284792;19;153956;-67
2022/08/05 13:18:14;;;;;;;;;;;;;;;23.21;36.38;102070.50;7287678;19;152009;-68